Time;durP1;ratioP1;P1;durP2;ratioP2;P2;SDS_P1;SDS_P2;PMS_P1;PMS_P2;Temp;Humidity;BMP_temperature;BMP_pressure;BME280_temperature;BME280_humidity;BME280_pressure;Samples;Min_cycle;Max_cycle;Signal;HPM_P1;HPM_P2
2023/08/06 00:01:08;;;;;;;3.10;0.90;;;;;;;15.54;100.00;99198.03;108619;1266;22644;-83
2023/08/06 00:03:59;;;;;;;3.00;0.60;;;;;;;15.53;100.00;99193.25;108553;1270;24056;-83
2023/08/06 00:06:32;;;;;;;2.40;0.70;;;;;;;15.55;100.00;99180.79;108509;1276;25464;-83
2023/08/06 00:09:03;;;;;;;1.40;0.50;;;;;;;15.56;100.00;99175.29;108507;1276;24092;-83
2023/08/06 00:11:34;;;;;;;2.30;0.60;;;;;;;15.57;100.00;99174.98;108580;1276;22515;-82
2023/08/06 00:14:05;;;;;;;2.30;0.60;;;;;;;15.58;100.00;99177.46;108602;1276;25972;-82
2023/08/06 00:16:35;;;;;;;1.10;0.30;;;;;;;15.59;100.00;99177.55;108527;1276;22522;-83
2023/08/06 00:19:06;;;;;;;2.90;0.40;;;;;;;15.59;100.00;99171.21;108539;1276;23213;-83
2023/08/06 00:21:37;;;;;;;3.60;0.60;;;;;;;15.59;100.00;99169.57;108509;1276;24524;-83
2023/08/06 00:24:08;;;;;;;3.80;0.60;;;;;;;15.59;100.00;99165.94;108549;1267;22474;-83
2023/08/06 00:26:38;;;;;;;1.70;0.40;;;;;;;15.60;100.00;99151.20;108596;1276;25462;-83
2023/08/06 00:29:09;;;;;;;1.60;0.50;;;;;;;15.60;100.00;99153.90;108497;1276;22601;-83
2023/08/06 00:31:40;;;;;;;2.20;0.50;;;;;;;15.59;100.00;99149.20;108542;1276;24448;-83
2023/08/06 00:34:10;;;;;;;5.40;0.50;;;;;;;15.60;100.00;99142.50;108593;1276;25429;-82
2023/08/06 00:36:41;;;;;;;1.60;0.50;;;;;;;15.60;100.00;99141.22;108532;1276;22568;-80
2023/08/06 00:39:12;;;;;;;2.70;0.60;;;;;;;15.59;100.00;99141.07;108508;1267;22574;-79
2023/08/06 00:41:42;;;;;;;1.20;0.50;;;;;;;15.62;100.00;99138.10;107982;1276;22510;-80
2023/08/06 00:44:14;;;;;;;2.70;0.40;;;;;;;15.64;100.00;99132.10;108414;1276;25242;-81
2023/08/06 00:46:46;;;;;;;1.60;0.50;;;;;;;15.64;100.00;99120.02;108380;1276;24219;-81
2023/08/06 00:49:17;;;;;;;2.20;0.40;;;;;;;15.64;100.00;99108.92;108372;1276;26585;-79
2023/08/06 00:51:49;;;;;;;3.70;0.40;;;;;;;15.62;100.00;99097.97;107761;1276;23163;-79
2023/08/06 00:54:20;;;;;;;1.20;0.40;;;;;;;15.61;100.00;99085.23;107854;1276;22520;-80
2023/08/06 00:56:51;;;;;;;1.80;0.40;;;;;;;15.63;100.00;99081.46;107932;1276;23039;-81
2023/08/06 00:59:22;;;;;;;3.40;0.70;;;;;;;15.61;100.00;99069.23;107947;1276;24276;-79
2023/08/06 01:01:54;;;;;;;2.30;0.30;;;;;;;15.58;100.00;99062.31;108055;1276;24292;-80
2023/08/06 01:04:25;;;;;;;3.30;0.50;;;;;;;15.58;100.00;99054.81;108021;1276;23491;-81
2023/08/06 01:07:20;;;;;;;1.70;0.50;;;;;;;15.58;100.00;99050.58;108400;1276;22458;-80
2023/08/06 01:10:01;;;;;;;1.20;0.30;;;;;;;15.58;100.00;99048.35;107867;1276;22472;-79
2023/08/06 01:12:42;;;;;;;2.20;0.30;;;;;;;15.58;100.00;99038.54;107970;1276;22477;-80
2023/08/06 01:15:20;;;;;;;0.80;0.20;;;;;;;15.59;100.00;99030.55;107921;1276;25414;-81
2023/08/06 01:17:51;;;;;;;1.70;0.40;;;;;;;15.57;100.00;99021.42;108482;1276;22551;-82
2023/08/06 01:20:22;;;;;;;1.50;0.30;;;;;;;15.55;100.00;99019.94;108506;1276;22515;-82
2023/08/06 01:22:53;;;;;;;2.10;0.40;;;;;;;15.55;100.00;99011.55;108532;1276;22620;-82
2023/08/06 01:25:32;;;;;;;2.10;0.40;;;;;;;15.53;100.00;99012.67;108479;1276;22518;-82
2023/08/06 01:28:11;;;;;;;0.60;0.30;;;;;;;15.52;100.00;99007.85;108482;1276;22483;-82
2023/08/06 01:30:43;;;;;;;2.70;0.30;;;;;;;15.52;100.00;99000.77;110282;1276;22306;-80
2023/08/06 01:33:20;;;;;;;1.80;0.40;;;;;;;15.52;100.00;98998.33;110328;1276;22271;-80
2023/08/06 01:35:54;;;;;;;1.40;0.40;;;;;;;15.53;100.00;98996.81;110354;1276;22251;-79
2023/08/06 01:38:28;;;;;;;1.70;0.40;;;;;;;15.55;100.00;98980.25;110333;1276;22220;-80
2023/08/06 01:40:58;;;;;;;2.20;0.30;;;;;;;15.55;100.00;98958.02;110347;1276;22217;-81
2023/08/06 01:43:29;;;;;;;1.40;0.30;;;;;;;15.53;100.00;98972.02;110292;1276;22300;-81
2023/08/06 01:46:00;;;;;;;1.30;0.30;;;;;;;15.48;100.00;98963.78;110340;1276;23308;-80
2023/08/06 01:48:31;;;;;;;3.70;0.30;;;;;;;15.46;100.00;98957.14;109818;1275;22574;-81
2023/08/06 01:51:02;;;;;;;1.00;0.20;;;;;;;15.41;100.00;98951.02;108414;1276;22553;-80
2023/08/06 01:53:32;;;;;;;1.10;0.30;;;;;;;15.37;100.00;98948.80;108489;1276;22612;-80
2023/08/06 01:56:03;;;;;;;1.80;0.30;;;;;;;15.33;100.00;98953.99;108367;1276;22548;-80
2023/08/06 01:58:34;;;;;;;2.20;0.20;;;;;;;15.31;100.00;98953.98;108267;1276;24286;-81
2023/08/06 02:01:05;;;;;;;1.30;0.10;;;;;;;15.29;100.00;98946.55;108313;1276;24199;-80
2023/08/06 02:03:35;;;;;;;3.20;0.30;;;;;;;15.25;100.00;98935.48;108400;1276;22586;-81
2023/08/06 02:06:07;;;;;;;1.20;0.20;;;;;;;15.21;100.00;98933.59;108464;1276;22583;-81
2023/08/06 02:08:38;;;;;;;0.80;0.20;;;;;;;15.18;100.00;98928.55;108501;1276;22518;-81
2023/08/06 02:11:09;;;;;;;1.00;0.20;;;;;;;15.17;100.00;98925.08;108458;1276;22483;-80
2023/08/06 02:13:40;;;;;;;1.00;0.20;;;;;;;15.18;100.00;98919.04;107994;1277;22602;-80
2023/08/06 02:16:11;;;;;;;1.80;0.30;;;;;;;15.17;100.00;98916.90;108756;1276;25240;-80
2023/08/06 02:18:41;;;;;;;1.40;0.20;;;;;;;15.15;100.00;98914.44;108564;1276;22514;-79
2023/08/06 02:21:12;;;;;;;1.40;0.60;;;;;;;15.13;100.00;98909.30;107843;1276;24225;-79
2023/08/06 02:23:43;;;;;;;0.60;0.20;;;;;;;15.12;100.00;98903.11;107941;1276;22518;-79
2023/08/06 02:26:13;;;;;;;0.60;0.20;;;;;;;15.10;100.00;98895.59;107946;1276;24350;-80
2023/08/06 02:28:44;;;;;;;1.60;0.10;;;;;;;15.09;100.00;98889.42;108022;1276;23306;-81
2023/08/06 02:31:15;;;;;;;0.60;0.20;;;;;;;15.05;100.00;98868.39;108539;1276;25529;-81
2023/08/06 02:33:45;;;;;;;3.10;0.30;;;;;;;15.02;100.00;98852.44;104423;1277;5404972;-80
2023/08/06 02:36:16;;;;;;;1.00;0.20;;;;;;;14.96;100.00;98843.55;108383;1276;22568;-80
2023/08/06 02:38:47;;;;;;;1.30;0.30;;;;;;;14.91;100.00;98840.44;108501;1276;25437;-80
2023/08/06 02:41:18;;;;;;;0.70;0.20;;;;;;;14.87;100.00;98835.36;108450;1269;22531;-79
2023/08/06 02:43:49;;;;;;;1.00;0.30;;;;;;;14.82;100.00;98829.58;108133;1276;25430;-80
2023/08/06 02:46:20;;;;;;;0.40;0.20;;;;;;;14.79;100.00;98829.04;108197;1270;22819;-80
2023/08/06 02:48:50;;;;;;;0.70;0.20;;;;;;;14.75;100.00;98832.17;108235;1272;23667;-80
2023/08/06 02:51:21;;;;;;;0.40;0.10;;;;;;;14.73;100.00;98830.34;108241;1270;23282;-81
2023/08/06 02:53:52;;;;;;;5.70;0.30;;;;;;;14.70;100.00;98833.66;108540;1276;24338;-82
2023/08/06 02:56:23;;;;;;;1.10;0.10;;;;;;;14.69;100.00;98838.90;108492;1276;25296;-82
2023/08/06 02:58:54;;;;;;;2.00;0.20;;;;;;;14.66;100.00;98838.23;108548;1275;22534;-83
2023/08/06 03:01:26;;;;;;;1.10;0.10;;;;;;;14.64;100.00;98827.86;108582;1276;22549;-83
2023/08/06 03:03:58;;;;;;;1.30;0.30;;;;;;;14.62;100.00;98820.64;108630;1276;23677;-83
2023/08/06 03:06:28;;;;;;;1.40;0.10;;;;;;;14.61;100.00;98812.96;108593;1276;25987;-83
2023/08/06 03:08:59;;;;;;;1.30;0.10;;;;;;;14.61;100.00;98817.56;109026;1276;23022;-85
2023/08/06 03:11:30;;;;;;;1.10;0.20;;;;;;;14.61;100.00;98821.80;109433;1276;22605;-84
2023/08/06 03:14:01;;;;;;;0.60;0.10;;;;;;;14.61;100.00;98821.38;109530;1276;23219;-85
2023/08/06 03:16:31;;;;;;;1.50;0.30;;;;;;;14.61;100.00;98824.64;109516;1276;23090;-85
2023/08/06 03:19:02;;;;;;;0.80;0.20;;;;;;;14.62;100.00;98835.56;109409;1276;22627;-86
2023/08/06 03:21:33;;;;;;;0.60;0.20;;;;;;;14.63;100.00;98843.25;109479;1276;22600;-85
2023/08/06 03:24:04;;;;;;;0.90;0.10;;;;;;;14.63;100.00;98841.71;109315;1276;25261;-85
2023/08/06 03:26:34;;;;;;;0.60;0.10;;;;;;;14.63;100.00;98833.92;109404;1276;22578;-85
2023/08/06 03:29:05;;;;;;;1.90;0.10;;;;;;;14.61;100.00;98827.79;109230;1276;22577;-84
2023/08/06 03:31:36;;;;;;;0.20;0.10;;;;;;;14.58;100.00;98824.91;108713;1276;22611;-82
2023/08/06 03:34:07;;;;;;;0.40;0.10;;;;;;;14.56;100.00;98816.68;108442;1276;22553;-80
2023/08/06 03:36:38;;;;;;;1.20;0.40;;;;;;;14.53;100.00;98809.38;108587;1253;25939;-80
2023/08/06 03:39:08;;;;;;;0.50;0.00;;;;;;;14.51;100.00;98810.05;108511;1276;24226;-80
2023/08/06 03:41:39;;;;;;;0.60;0.10;;;;;;;14.49;100.00;98804.88;108465;1276;22543;-79
2023/08/06 03:44:10;;;;;;;0.60;0.10;;;;;;;14.49;100.00;98806.86;108580;1269;23868;-80
2023/08/06 03:46:40;;;;;;;0.70;0.00;;;;;;;14.48;100.00;98802.15;108531;1254;23324;-80
2023/08/06 03:49:11;;;;;;;0.60;0.10;;;;;;;14.47;100.00;98803.59;108025;1276;25514;-79
2023/08/06 03:51:42;;;;;;;0.10;0.00;;;;;;;14.45;100.00;98810.61;108068;1270;26612;-79
2023/08/06 03:54:12;;;;;;;0.20;0.00;;;;;;;14.43;100.00;98808.56;108024;1276;22608;-80
2023/08/06 03:56:43;;;;;;;0.70;0.00;;;;;;;14.42;100.00;98809.14;108083;1273;22511;-80
2023/08/06 03:59:14;;;;;;;0.30;0.00;;;;;;;14.40;100.00;98806.83;108138;1276;23691;-80
2023/08/06 04:01:44;;;;;;;0.20;0.10;;;;;;;14.39;100.00;98808.69;108449;1276;22525;-80
2023/08/06 04:04:15;;;;;;;0.60;0.00;;;;;;;14.38;100.00;98808.77;108492;1276;22637;-80
2023/08/06 04:06:46;;;;;;;0.30;0.10;;;;;;;14.37;100.00;98817.83;108472;1276;22544;-81
2023/08/06 04:09:17;;;;;;;0.50;0.10;;;;;;;14.35;100.00;98817.95;108405;1273;24315;-81
2023/08/06 04:11:47;;;;;;;2.00;0.30;;;;;;;14.35;100.00;98823.12;108430;1275;22517;-81
2023/08/06 04:14:18;;;;;;;1.50;0.10;;;;;;;14.35;100.00;98822.66;108422;1269;22548;-80
2023/08/06 04:16:49;;;;;;;1.20;0.10;;;;;;;14.33;100.00;98826.30;108521;1276;22543;-80
2023/08/06 04:19:20;;;;;;;0.40;0.10;;;;;;;14.32;100.00;98812.95;108496;1265;22535;-81
2023/08/06 04:21:50;;;;;;;0.10;0.00;;;;;;;14.30;100.00;98816.02;108613;1276;22554;-81
2023/08/06 04:24:21;;;;;;;0.30;0.00;;;;;;;14.28;100.00;98819.23;108578;1262;22542;-82
2023/08/06 04:26:52;;;;;;;1.40;0.00;;;;;;;14.26;100.00;98811.56;108673;1276;22630;-82
2023/08/06 04:29:24;;;;;;;0.20;0.10;;;;;;;14.25;100.00;98809.35;108641;1265;22955;-80
2023/08/06 04:31:55;;;;;;;0.30;0.10;;;;;;;14.24;100.00;98811.20;108600;1269;22530;-81
2023/08/06 04:34:25;;;;;;;0.40;0.00;;;;;;;14.22;100.00;98808.21;108592;1276;23225;-80
2023/08/06 04:36:56;;;;;;;0.10;0.00;;;;;;;14.21;100.00;98801.51;108560;1266;23425;-81
2023/08/06 04:39:27;;;;;;;3.10;0.20;;;;;;;14.21;100.00;98803.25;108604;1276;22643;-81
2023/08/06 04:41:58;;;;;;;1.00;0.10;;;;;;;14.19;100.00;98789.71;108582;1273;22513;-81
2023/08/06 04:44:29;;;;;;;0.80;0.10;;;;;;;14.18;100.00;98784.67;108488;1275;22648;-80
2023/08/06 04:46:59;;;;;;;2.90;0.10;;;;;;;14.16;100.00;98779.04;108551;1276;22535;-80
2023/08/06 04:49:30;;;;;;;0.20;0.00;;;;;;;14.15;100.00;98768.96;108580;1276;22510;-81
2023/08/06 04:52:01;;;;;;;0.80;0.00;;;;;;;14.14;100.00;98770.66;108539;1276;22552;-80
2023/08/06 04:54:32;;;;;;;0.90;0.10;;;;;;;14.12;100.00;98772.73;108608;1267;24260;-80
2023/08/06 04:57:03;;;;;;;0.30;0.00;;;;;;;14.12;100.00;98774.12;108519;1276;22510;-80
2023/08/06 04:59:34;;;;;;;0.20;0.00;;;;;;;14.12;100.00;98780.19;108565;1276;22644;-80
2023/08/06 05:02:05;;;;;;;1.20;0.00;;;;;;;14.13;100.00;98776.00;108639;1276;25281;-80
2023/08/06 05:04:37;;;;;;;1.20;0.00;;;;;;;14.12;100.00;98777.79;108607;1276;23389;-80
2023/08/06 05:07:08;;;;;;;0.60;0.00;;;;;;;14.12;100.00;98776.36;108611;1276;22518;-80
2023/08/06 05:09:38;;;;;;;0.50;0.00;;;;;;;14.12;100.00;98774.52;108764;1276;22563;-81
2023/08/06 05:12:11;;;;;;;1.30;0.10;;;;;;;14.11;100.00;98765.57;108637;1276;22546;-81
2023/08/06 05:14:42;;;;;;;1.90;0.10;;;;;;;14.11;100.00;98753.38;108409;1276;22649;-80
2023/08/06 05:17:12;;;;;;;0.80;0.10;;;;;;;14.09;100.00;98755.18;108479;1270;22545;-82
2023/08/06 05:19:44;;;;;;;0.30;0.00;;;;;;;14.09;100.00;98753.57;108540;1270;22525;-82
2023/08/06 05:22:14;;;;;;;0.40;0.00;;;;;;;14.10;100.00;98759.27;108397;1276;22527;-80
2023/08/06 05:24:46;;;;;;;0.80;0.00;;;;;;;14.09;100.00;98758.66;108381;1276;24296;-80
2023/08/06 05:27:18;;;;;;;1.00;0.10;;;;;;;14.08;100.00;98749.70;108389;1276;22659;-81
2023/08/06 05:29:51;;;;;;;0.80;0.20;;;;;;;14.08;100.00;98751.42;108367;1276;25444;-82
2023/08/06 05:32:22;;;;;;;0.40;0.10;;;;;;;14.07;100.00;98743.81;108636;1272;22567;-81
2023/08/06 05:34:53;;;;;;;0.90;0.10;;;;;;;14.06;100.00;98749.59;108617;1276;24283;-79
2023/08/06 05:37:24;;;;;;;0.20;0.00;;;;;;;14.06;100.00;98755.46;108813;1265;22463;-82
2023/08/06 05:39:55;;;;;;;2.10;0.10;;;;;;;14.05;100.00;98745.73;108727;1276;22544;-81
2023/08/06 05:42:26;;;;;;;0.40;0.10;;;;;;;14.05;100.00;98751.50;108569;1272;22535;-80
2023/08/06 05:44:56;;;;;;;0.40;0.00;;;;;;;14.06;100.00;98751.53;108677;1276;22543;-81
2023/08/06 05:47:27;;;;;;;0.00;0.00;;;;;;;14.05;100.00;98745.27;108532;1277;22627;-80
2023/08/06 05:49:58;;;;;;;0.60;0.10;;;;;;;14.04;100.00;98728.92;108680;1270;24995;-81
2023/08/06 05:52:29;;;;;;;0.30;0.00;;;;;;;14.03;100.00;98711.89;108876;1276;22687;-81
2023/08/06 05:55:00;;;;;;;0.80;0.10;;;;;;;14.03;100.00;98712.40;108895;1272;22465;-80
2023/08/06 05:57:31;;;;;;;0.30;0.00;;;;;;;14.04;100.00;98732.80;108735;1269;22529;-81
2023/08/06 06:00:02;;;;;;;2.00;0.10;;;;;;;14.04;100.00;98731.31;108740;1273;22562;-81
2023/08/06 06:02:33;;;;;;;0.80;0.00;;;;;;;14.05;100.00;98735.99;108728;1269;23359;-81
2023/08/06 06:05:04;;;;;;;0.30;0.00;;;;;;;14.05;100.00;98741.77;108650;1269;22476;-81
2023/08/06 06:07:35;;;;;;;1.60;0.00;;;;;;;14.05;100.00;98741.69;108604;1273;22548;-81
2023/08/06 06:10:07;;;;;;;0.10;0.00;;;;;;;14.06;100.00;98734.70;108660;1269;22576;-80
2023/08/06 06:12:40;;;;;;;1.10;0.00;;;;;;;14.06;100.00;98737.85;108530;1255;22612;-81
2023/08/06 06:15:11;;;;;;;0.40;0.00;;;;;;;14.06;100.00;98752.48;108706;1269;24236;-84
2023/08/06 06:17:42;;;;;;;1.00;0.10;;;;;;;14.07;100.00;98770.18;108590;1273;22573;-82
2023/08/06 06:20:13;;;;;;;1.30;0.00;;;;;;;14.06;100.00;98777.95;108512;1269;22511;-81
2023/08/06 06:22:44;;;;;;;0.40;0.00;;;;;;;14.06;100.00;98774.40;108499;1276;22543;-81
2023/08/06 06:25:14;;;;;;;0.40;0.00;;;;;;;14.06;100.00;98763.21;108485;1272;22516;-82
2023/08/06 06:27:45;;;;;;;0.10;0.00;;;;;;;14.05;100.00;98749.52;108531;1276;22541;-81
2023/08/06 06:30:16;;;;;;;1.10;0.10;;;;;;;14.04;100.00;98740.80;108487;1272;22590;-81
2023/08/06 06:32:47;;;;;;;1.50;0.10;;;;;;;14.02;100.00;98735.73;108685;1262;22569;-82
2023/08/06 06:35:18;;;;;;;0.40;0.10;;;;;;;14.01;100.00;98728.57;108676;1276;22708;-83
2023/08/06 06:37:49;;;;;;;0.30;0.00;;;;;;;14.00;100.00;98728.52;108606;1277;22526;-81
2023/08/06 06:40:20;;;;;;;0.00;0.00;;;;;;;14.00;100.00;98735.58;108783;1273;22536;-81
2023/08/06 06:42:50;;;;;;;0.10;0.00;;;;;;;14.00;100.00;98737.36;108598;1275;22565;-82
2023/08/06 06:45:21;;;;;;;0.70;0.00;;;;;;;14.00;100.00;98737.20;108610;1276;22585;-81
2023/08/06 06:47:52;;;;;;;0.80;0.00;;;;;;;14.01;100.00;98741.25;108544;1276;22564;-80
2023/08/06 06:50:23;;;;;;;0.40;0.10;;;;;;;14.02;100.00;98741.56;108536;1276;22610;-82
2023/08/06 06:52:54;;;;;;;0.70;0.00;;;;;;;14.01;100.00;98731.98;108625;1276;24251;-81
2023/08/06 06:55:25;;;;;;;0.60;0.00;;;;;;;14.02;100.00;98729.98;108678;1276;23179;-82
2023/08/06 06:57:56;;;;;;;1.10;0.00;;;;;;;14.04;100.00;98733.92;108606;1272;22592;-82
2023/08/06 07:00:29;;;;;;;0.20;0.00;;;;;;;14.04;100.00;98735.95;108483;1272;22487;-81
2023/08/06 07:02:59;;;;;;;0.60;0.00;;;;;;;14.05;100.00;98725.52;108525;1272;22557;-81
2023/08/06 07:05:30;;;;;;;0.80;0.00;;;;;;;14.07;100.00;98727.27;108616;1271;22553;-81
2023/08/06 07:08:01;;;;;;;1.00;0.00;;;;;;;14.09;100.00;98722.70;108611;1276;22470;-80
2023/08/06 07:10:32;;;;;;;2.20;0.20;;;;;;;14.11;100.00;98721.79;108487;1276;22605;-81
2023/08/06 07:13:02;;;;;;;0.30;0.00;;;;;;;14.12;100.00;98720.08;108619;1277;22561;-82
2023/08/06 07:15:33;;;;;;;0.00;0.00;;;;;;;14.12;100.00;98720.84;108798;1276;22519;-82
2023/08/06 07:18:04;;;;;;;0.10;0.00;;;;;;;14.12;100.00;98710.14;108699;1277;22537;-82
2023/08/06 07:20:35;;;;;;;0.50;0.10;;;;;;;14.11;100.00;98698.83;108657;1272;22521;-82
2023/08/06 07:23:05;;;;;;;1.50;0.30;;;;;;;14.11;100.00;98702.60;108643;1276;26550;-81
2023/08/06 07:25:36;;;;;;;1.00;0.00;;;;;;;14.12;100.00;98708.45;108603;1276;22525;-82
2023/08/06 07:28:07;;;;;;;0.40;0.00;;;;;;;14.13;100.00;98712.25;108504;1277;22514;-82
2023/08/06 07:30:41;;;;;;;0.10;0.00;;;;;;;14.15;100.00;98720.65;108549;1276;23702;-81
2023/08/06 07:33:11;;;;;;;0.20;0.00;;;;;;;14.15;100.00;98719.45;108478;1265;22515;-81
2023/08/06 07:35:43;;;;;;;0.70;0.00;;;;;;;14.16;100.00;98719.23;108606;1274;22521;-82
2023/08/06 07:38:14;;;;;;;1.60;0.00;;;;;;;14.16;100.00;98708.42;108529;1276;22468;-82
2023/08/06 07:40:45;;;;;;;0.20;0.10;;;;;;;14.15;100.00;98691.95;108677;1276;22596;-82
2023/08/06 07:43:16;;;;;;;1.30;0.00;;;;;;;14.14;100.00;98692.14;108695;1265;22566;-81
2023/08/06 07:45:47;;;;;;;0.30;0.10;;;;;;;14.14;100.00;98695.60;108717;1269;22570;-82
2023/08/06 07:48:18;;;;;;;0.60;0.00;;;;;;;14.14;100.00;98702.04;108602;1276;26551;-80
2023/08/06 07:50:53;;;;;;;0.10;0.00;;;;;;;14.14;100.00;98703.92;108693;1276;22526;-81
2023/08/06 07:53:26;;;;;;;0.40;0.00;;;;;;;14.15;100.00;98702.84;110357;1276;22871;-81
2023/08/06 07:55:57;;;;;;;1.00;0.00;;;;;;;14.16;100.00;98688.23;110362;1276;22922;-80
2023/08/06 07:58:29;;;;;;;0.80;0.00;;;;;;;14.17;100.00;98680.76;110352;1272;22160;-82
2023/08/06 08:01:00;;;;;;;0.30;0.10;;;;;;;14.18;100.00;98675.01;110330;1272;22816;-81
2023/08/06 08:03:31;;;;;;;0.90;0.10;;;;;;;14.19;100.00;98674.48;110314;1276;23497;-80
2023/08/06 08:06:02;;;;;;;0.60;0.00;;;;;;;14.19;100.00;98667.38;110304;1276;22947;-80
2023/08/06 08:08:32;;;;;;;0.40;0.00;;;;;;;14.20;100.00;98660.44;110334;1276;22293;-80
2023/08/06 08:11:04;;;;;;;2.40;0.10;;;;;;;14.21;100.00;98647.64;110304;1272;22399;-81
2023/08/06 08:13:35;;;;;;;0.60;0.10;;;;;;;14.22;100.00;98639.14;110311;1273;22334;-82
2023/08/06 08:16:06;;;;;;;0.10;0.00;;;;;;;14.24;100.00;98633.70;110341;1271;22275;-82
2023/08/06 08:18:37;;;;;;;0.10;0.00;;;;;;;14.25;100.00;98624.50;110325;1270;22409;-81
2023/08/06 08:21:08;;;;;;;0.80;0.10;;;;;;;14.26;100.00;98607.83;110302;1270;22168;-82
2023/08/06 08:23:39;;;;;;;0.10;0.00;;;;;;;14.27;100.00;98607.34;110352;1276;22339;-82
2023/08/06 08:26:09;;;;;;;0.00;0.00;;;;;;;14.29;100.00;98604.23;110344;1276;22184;-80
2023/08/06 08:28:40;;;;;;;0.50;0.10;;;;;;;14.32;100.00;98610.43;110335;1265;22181;-84
2023/08/06 08:31:12;;;;;;;0.50;0.10;;;;;;;14.35;100.00;98618.79;110373;1276;22431;-87
2023/08/06 08:33:43;;;;;;;0.70;0.20;;;;;;;14.39;100.00;98631.10;110332;1276;22638;-81
2023/08/06 08:36:14;;;;;;;0.70;0.10;;;;;;;14.43;100.00;98637.66;110369;1276;22417;-81
2023/08/06 08:38:45;;;;;;;2.30;0.20;;;;;;;14.46;100.00;98637.02;110277;1276;22151;-82
2023/08/06 08:41:16;;;;;;;1.00;0.20;;;;;;;14.50;100.00;98634.29;110304;1276;22317;-82
2023/08/06 08:43:48;;;;;;;0.30;0.10;;;;;;;14.52;100.00;98635.70;110287;1276;22165;-83
2023/08/06 08:46:20;;;;;;;1.00;0.30;;;;;;;14.53;100.00;98624.86;110339;1273;22384;-82
2023/08/06 08:48:51;;;;;;;0.90;0.20;;;;;;;14.55;100.00;98617.84;110262;1272;22169;-82
2023/08/06 08:51:21;;;;;;;0.70;0.30;;;;;;;14.56;100.00;98617.33;110320;1272;22283;-80
2023/08/06 08:53:55;;;;;;;1.10;0.30;;;;;;;14.58;100.00;98609.48;110375;1276;22212;-80
2023/08/06 08:56:26;;;;;;;0.80;0.40;;;;;;;14.60;100.00;98607.70;110341;1272;22862;-80
2023/08/06 08:58:57;;;;;;;2.20;0.40;;;;;;;14.63;100.00;98607.70;110363;1272;22350;-82
2023/08/06 09:01:29;;;;;;;1.10;0.40;;;;;;;14.65;100.00;98606.02;108875;1269;23280;-81
2023/08/06 09:04:00;;;;;;;1.30;0.40;;;;;;;14.67;100.00;98597.73;108606;1272;22569;-80
2023/08/06 09:06:34;;;;;;;1.10;0.30;;;;;;;14.68;100.00;98603.19;108553;1273;22725;-81
2023/08/06 09:09:09;;;;;;;1.20;0.50;;;;;;;14.69;100.00;98604.34;108634;1276;25295;-80
2023/08/06 09:11:48;;;;;;;0.60;0.30;;;;;;;14.69;100.00;98603.12;108581;1269;23151;-80
2023/08/06 09:14:20;;;;;;;1.30;0.40;;;;;;;14.69;100.00;98602.48;108614;1269;24262;-80
2023/08/06 09:16:52;;;;;;;0.70;0.30;;;;;;;14.70;100.00;98610.34;108437;1269;22485;-79
2023/08/06 09:19:23;;;;;;;1.80;0.30;;;;;;;14.70;100.00;98605.99;107974;1276;22673;-80
2023/08/06 09:21:57;;;;;;;0.30;0.20;;;;;;;14.68;100.00;98608.90;108258;1272;22988;-80
2023/08/06 09:24:32;;;;;;;0.50;0.20;;;;;;;14.67;100.00;98606.61;109035;1270;23020;-81
2023/08/06 09:27:15;;;;;;;1.50;0.30;;;;;;;14.68;100.00;98609.81;108996;1274;22534;-81
2023/08/06 09:29:49;;;;;;;0.50;0.20;;;;;;;14.68;100.00;98610.33;108909;1264;22543;-80
2023/08/06 09:32:23;;;;;;;0.40;0.10;;;;;;;14.67;100.00;98607.48;108652;1274;25784;-81
2023/08/06 09:34:58;;;;;;;0.70;0.10;;;;;;;14.67;100.00;98602.90;108452;1272;25210;-79
2023/08/06 09:37:38;;;;;;;0.40;0.10;;;;;;;14.65;100.00;98614.48;108301;1272;22489;-80
2023/08/06 09:40:33;;;;;;;0.30;0.10;;;;;;;14.62;100.00;98613.07;107862;1276;22605;-80
2023/08/06 09:43:05;;;;;;;0.40;0.10;;;;;;;14.61;100.00;98615.32;110330;1276;22728;-81
2023/08/06 09:45:37;;;;;;;0.70;0.10;;;;;;;14.59;100.00;98615.08;110347;1272;22175;-80
2023/08/06 09:48:10;;;;;;;0.70;0.20;;;;;;;14.61;100.00;98617.91;110258;1275;23114;-80
2023/08/06 09:50:41;;;;;;;0.30;0.10;;;;;;;14.62;100.00;98623.89;110316;1272;23071;-80
2023/08/06 09:53:13;;;;;;;0.30;0.10;;;;;;;14.63;100.00;98625.41;110311;1272;22430;-80
2023/08/06 09:55:43;;;;;;;0.80;0.10;;;;;;;14.64;100.00;98624.27;110302;1270;22311;-80
2023/08/06 09:58:15;;;;;;;0.20;0.10;;;;;;;14.65;100.00;98626.07;110342;1276;22335;-80
2023/08/06 10:00:46;;;;;;;3.60;0.10;;;;;;;14.65;100.00;98626.36;110382;1277;22291;-80
2023/08/06 10:03:17;;;;;;;0.60;0.10;;;;;;;14.67;100.00;98623.23;110336;1272;22113;-79
2023/08/06 10:05:50;;;;;;;3.00;0.20;;;;;;;14.67;100.00;98622.48;110272;1277;23247;-79
2023/08/06 10:08:21;;;;;;;3.00;0.30;;;;;;;14.68;100.00;98625.04;110315;1275;22358;-79
2023/08/06 10:10:53;;;;;;;1.00;0.20;;;;;;;14.69;100.00;98618.95;110371;1272;22800;-79
2023/08/06 10:13:25;;;;;;;1.20;0.10;;;;;;;14.69;100.00;98610.46;110407;1276;22320;-80
2023/08/06 10:15:56;;;;;;;1.40;0.20;;;;;;;14.68;100.00;98599.70;110366;1272;22333;-80
2023/08/06 10:18:28;;;;;;;1.00;0.20;;;;;;;14.68;100.00;98585.61;110272;1272;22496;-80
2023/08/06 10:21:00;;;;;;;0.60;0.10;;;;;;;14.69;100.00;98574.48;110370;1273;22324;-79
2023/08/06 10:23:38;;;;;;;0.90;0.20;;;;;;;14.69;100.00;98567.76;110348;1273;23005;-79
2023/08/06 10:26:10;;;;;;;0.70;0.20;;;;;;;14.69;100.00;98566.94;110373;1257;22888;-79
2023/08/06 10:28:42;;;;;;;0.90;0.20;;;;;;;14.71;100.00;98563.42;110331;1273;23063;-79
2023/08/06 10:31:13;;;;;;;0.90;0.20;;;;;;;14.72;100.00;98560.45;110334;1271;23758;-79
2023/08/06 10:33:45;;;;;;;0.10;0.10;;;;;;;14.73;100.00;98551.17;110274;1275;22300;-79
2023/08/06 10:36:17;;;;;;;0.60;0.10;;;;;;;14.75;100.00;98542.50;110278;1273;22335;-79
2023/08/06 10:38:50;;;;;;;1.30;0.10;;;;;;;14.76;100.00;98543.61;110259;1270;22121;-80
2023/08/06 10:41:29;;;;;;;0.70;0.10;;;;;;;14.76;100.00;98544.05;110389;1272;22327;-80
2023/08/06 10:44:12;;;;;;;1.10;0.20;;;;;;;14.79;100.00;98537.40;110301;1269;22893;-79
2023/08/06 10:46:42;;;;;;;1.00;0.20;;;;;;;14.81;100.00;98532.70;110177;1275;22340;-77
2023/08/06 10:49:18;;;;;;;1.10;0.10;;;;;;;14.80;100.00;98534.09;110342;1273;22309;-78
2023/08/06 10:51:49;;;;;;;1.20;0.20;;;;;;;14.81;100.00;98532.85;110318;1275;22976;-78
2023/08/06 10:54:20;;;;;;;1.40;0.10;;;;;;;14.82;100.00;98523.31;110327;1276;22322;-79
2023/08/06 10:56:52;;;;;;;1.00;0.20;;;;;;;14.84;100.00;98518.77;110299;1269;23027;-78
2023/08/06 10:59:22;;;;;;;0.80;0.20;;;;;;;14.87;100.00;98514.50;110297;1271;22211;-79
2023/08/06 11:01:54;;;;;;;0.90;0.20;;;;;;;14.90;100.00;98517.38;110172;1277;22334;-79
2023/08/06 11:04:26;;;;;;;2.30;0.20;;;;;;;14.95;100.00;98525.73;110220;1276;22245;-79
2023/08/06 11:06:56;;;;;;;1.10;0.20;;;;;;;14.98;100.00;98526.43;109695;1269;22149;-79
2023/08/06 11:09:27;;;;;;;0.80;0.10;;;;;;;15.01;100.00;98527.35;110052;1269;22526;-79
2023/08/06 11:11:58;;;;;;;1.90;0.20;;;;;;;15.05;100.00;98523.23;110301;1269;22280;-80
2023/08/06 11:14:31;;;;;;;1.10;0.20;;;;;;;15.07;100.00;98522.45;110306;1272;22236;-80
2023/08/06 11:17:02;;;;;;;0.50;0.20;;;;;;;15.09;100.00;98524.49;110339;1270;22626;-80
2023/08/06 11:19:33;;;;;;;1.40;0.10;;;;;;;15.10;100.00;98526.83;110285;1275;23035;-80
2023/08/06 11:22:04;;;;;;;0.40;0.10;;;;;;;15.09;100.00;98528.23;110321;1269;22238;-81
2023/08/06 11:24:35;;;;;;;0.60;0.10;;;;;;;15.09;100.00;98526.59;110308;1270;23066;-80
2023/08/06 11:27:14;;;;;;;1.40;0.20;;;;;;;15.09;100.00;98525.36;110347;1276;22193;-80
2023/08/06 11:29:45;;;;;;;4.10;0.10;;;;;;;15.10;100.00;98525.98;110308;1272;22185;-80
2023/08/06 11:32:16;;;;;;;0.60;0.10;;;;;;;15.10;100.00;98519.27;110325;1276;22164;-79
2023/08/06 11:34:47;;;;;;;0.80;0.10;;;;;;;15.11;100.00;98519.04;110346;1269;22284;-79
2023/08/06 11:37:22;;;;;;;0.50;0.10;;;;;;;15.12;100.00;98520.80;110317;1268;22358;-80